sensor_id;sensor_type;location;lat;lon;timestamp;temperature;humidity
22629;DHT22;11481;53.694;9.910;2022-11-03T00:01:56;9.50;99.90
22629;DHT22;11481;53.694;9.910;2022-11-03T00:04:23;9.40;99.90
22629;DHT22;11481;53.694;9.910;2022-11-03T00:06:52;9.40;99.90
22629;DHT22;11481;53.694;9.910;2022-11-03T00:09:19;9.40;99.90
22629;DHT22;11481;53.694;9.910;2022-11-03T00:11:48;9.40;99.90
22629;DHT22;11481;53.694;9.910;2022-11-03T00:14:18;9.40;99.90
22629;DHT22;11481;53.694;9.910;2022-11-03T00:16:45;9.40;99.90
22629;DHT22;11481;53.694;9.910;2022-11-03T00:19:12;9.40;99.90
22629;DHT22;11481;53.694;9.910;2022-11-03T00:21:41;9.40;99.90
22629;DHT22;11481;53.694;9.910;2022-11-03T00:24:10;9.30;99.90
22629;DHT22;11481;53.694;9.910;2022-11-03T00:26:37;9.30;99.90
22629;DHT22;11481;53.694;9.910;2022-11-03T00:29:08;9.30;99.90
22629;DHT22;11481;53.694;9.910;2022-11-03T00:31:36;9.30;99.90
22629;DHT22;11481;53.694;9.910;2022-11-03T00:34:04;9.40;99.90
22629;DHT22;11481;53.694;9.910;2022-11-03T00:36:36;9.40;99.90
22629;DHT22;11481;53.694;9.910;2022-11-03T00:39:04;9.30;99.90
22629;DHT22;11481;53.694;9.910;2022-11-03T00:41:31;9.30;99.90
22629;DHT22;11481;53.694;9.910;2022-11-03T00:43:58;9.30;99.90
22629;DHT22;11481;53.694;9.910;2022-11-03T00:46:25;9.40;99.90
22629;DHT22;11481;53.694;9.910;2022-11-03T00:48:52;9.40;99.90
22629;DHT22;11481;53.694;9.910;2022-11-03T00:51:25;9.40;99.90
22629;DHT22;11481;53.694;9.910;2022-11-03T00:53:56;9.40;99.90
22629;DHT22;11481;53.694;9.910;2022-11-03T00:56:25;9.40;99.90
22629;DHT22;11481;53.694;9.910;2022-11-03T00:58:53;9.40;99.90
22629;DHT22;11481;53.694;9.910;2022-11-03T01:01:22;9.30;99.90
22629;DHT22;11481;53.694;9.910;2022-11-03T01:03:52;9.40;99.90
22629;DHT22;11481;53.694;9.910;2022-11-03T01:06:40;9.30;99.90
22629;DHT22;11481;53.694;9.910;2022-11-03T01:11:56;9.30;99.90
22629;DHT22;11481;53.694;9.910;2022-11-03T01:14:25;9.30;99.90
22629;DHT22;11481;53.694;9.910;2022-11-03T01:16:52;9.20;99.90
22629;DHT22;11481;53.694;9.910;2022-11-03T01:19:18;9.20;99.90
22629;DHT22;11481;53.694;9.910;2022-11-03T01:21:45;9.20;99.90
22629;DHT22;11481;53.694;9.910;2022-11-03T01:24:12;9.10;99.90
22629;DHT22;11481;53.694;9.910;2022-11-03T01:26:38;9.00;99.90
22629;DHT22;11481;53.694;9.910;2022-11-03T01:29:05;9.10;99.90
22629;DHT22;11481;53.694;9.910;2022-11-03T01:31:31;9.10;99.90
22629;DHT22;11481;53.694;9.910;2022-11-03T01:33:58;9.10;99.90
22629;DHT22;11481;53.694;9.910;2022-11-03T01:36:25;9.20;99.90
22629;DHT22;11481;53.694;9.910;2022-11-03T01:38:54;9.10;99.90
22629;DHT22;11481;53.694;9.910;2022-11-03T01:41:24;9.10;99.90
22629;DHT22;11481;53.694;9.910;2022-11-03T01:49:29;9.20;99.90
22629;DHT22;11481;53.694;9.910;2022-11-03T01:52:40;9.10;99.90
22629;DHT22;11481;53.694;9.910;2022-11-03T01:55:17;9.10;99.90
22629;DHT22;11481;53.694;9.910;2022-11-03T02:00:26;9.10;99.90
22629;DHT22;11481;53.694;9.910;2022-11-03T02:02:53;9.10;99.90
22629;DHT22;11481;53.694;9.910;2022-11-03T02:05:21;9.10;99.90
22629;DHT22;11481;53.694;9.910;2022-11-03T02:07:59;9.10;99.90
22629;DHT22;11481;53.694;9.910;2022-11-03T02:10:29;9.10;99.90
22629;DHT22;11481;53.694;9.910;2022-11-03T02:12:55;9.20;99.90
22629;DHT22;11481;53.694;9.910;2022-11-03T02:15:23;9.10;99.90
22629;DHT22;11481;53.694;9.910;2022-11-03T02:17:51;9.00;99.90
22629;DHT22;11481;53.694;9.910;2022-11-03T02:20:25;9.10;99.90
22629;DHT22;11481;53.694;9.910;2022-11-03T02:23:18;9.10;99.90
22629;DHT22;11481;53.694;9.910;2022-11-03T02:25:54;9.10;99.90
22629;DHT22;11481;53.694;9.910;2022-11-03T02:28:24;9.00;99.90
22629;DHT22;11481;53.694;9.910;2022-11-03T02:36:08;9.10;99.90
22629;DHT22;11481;53.694;9.910;2022-11-03T02:38:51;9.10;99.90
22629;DHT22;11481;53.694;9.910;2022-11-03T02:41:20;9.10;99.90
22629;DHT22;11481;53.694;9.910;2022-11-03T02:43:48;9.20;99.90
22629;DHT22;11481;53.694;9.910;2022-11-03T02:46:15;9.10;99.90
22629;DHT22;11481;53.694;9.910;2022-11-03T02:48:42;9.10;99.90
22629;DHT22;11481;53.694;9.910;2022-11-03T02:51:10;9.20;99.90
22629;DHT22;11481;53.694;9.910;2022-11-03T02:53:42;9.20;99.90
22629;DHT22;11481;53.694;9.910;2022-11-03T02:56:18;9.30;99.90
22629;DHT22;11481;53.694;9.910;2022-11-03T02:58:54;9.30;99.90
22629;DHT22;11481;53.694;9.910;2022-11-03T03:01:35;9.30;99.90
22629;DHT22;11481;53.694;9.910;2022-11-03T03:04:26;9.40;99.90
22629;DHT22;11481;53.694;9.910;2022-11-03T03:06:58;9.40;99.90
22629;DHT22;11481;53.694;9.910;2022-11-03T03:09:34;9.40;99.90
22629;DHT22;11481;53.694;9.910;2022-11-03T03:12:03;9.50;99.90
22629;DHT22;11481;53.694;9.910;2022-11-03T03:14:34;9.50;99.90
22629;DHT22;11481;53.694;9.910;2022-11-03T03:17:29;9.50;99.90
22629;DHT22;11481;53.694;9.910;2022-11-03T03:20:30;9.50;99.90
22629;DHT22;11481;53.694;9.910;2022-11-03T03:23:11;9.50;99.90
22629;DHT22;11481;53.694;9.910;2022-11-03T03:25:58;9.40;99.90
22629;DHT22;11481;53.694;9.910;2022-11-03T03:28:47;9.40;99.90
22629;DHT22;11481;53.694;9.910;2022-11-03T03:31:17;9.40;99.90
22629;DHT22;11481;53.694;9.910;2022-11-03T03:33:46;9.40;99.90
22629;DHT22;11481;53.694;9.910;2022-11-03T03:36:16;9.30;99.90
22629;DHT22;11481;53.694;9.910;2022-11-03T03:38:53;9.30;99.90
22629;DHT22;11481;53.694;9.910;2022-11-03T03:41:21;9.30;99.90
22629;DHT22;11481;53.694;9.910;2022-11-03T03:43:56;9.20;99.90
22629;DHT22;11481;53.694;9.910;2022-11-03T03:46:28;9.20;99.90
22629;DHT22;11481;53.694;9.910;2022-11-03T03:48:57;9.10;99.90
22629;DHT22;11481;53.694;9.910;2022-11-03T03:51:25;9.10;99.90
22629;DHT22;11481;53.694;9.910;2022-11-03T03:53:54;9.10;99.90
22629;DHT22;11481;53.694;9.910;2022-11-03T03:56:40;9.10;99.90
22629;DHT22;11481;53.694;9.910;2022-11-03T03:59:08;9.10;99.90
22629;DHT22;11481;53.694;9.910;2022-11-03T04:01:34;9.10;99.90
22629;DHT22;11481;53.694;9.910;2022-11-03T04:04:01;9.20;99.90
22629;DHT22;11481;53.694;9.910;2022-11-03T04:06:28;9.20;99.90
22629;DHT22;11481;53.694;9.910;2022-11-03T04:08:54;9.20;99.90
22629;DHT22;11481;53.694;9.910;2022-11-03T04:11:21;9.10;99.90
22629;DHT22;11481;53.694;9.910;2022-11-03T04:14:08;9.10;99.90
22629;DHT22;11481;53.694;9.910;2022-11-03T04:16:54;9.10;99.90
22629;DHT22;11481;53.694;9.910;2022-11-03T04:19:40;9.00;99.90
22629;DHT22;11481;53.694;9.910;2022-11-03T04:22:31;9.00;99.90
22629;DHT22;11481;53.694;9.910;2022-11-03T04:24:58;9.00;99.90
22629;DHT22;11481;53.694;9.910;2022-11-03T04:27:33;8.90;99.90
22629;DHT22;11481;53.694;9.910;2022-11-03T04:30:17;8.80;99.90
22629;DHT22;11481;53.694;9.910;2022-11-03T04:32:47;8.80;99.90
22629;DHT22;11481;53.694;9.910;2022-11-03T04:35:19;8.70;99.90
22629;DHT22;11481;53.694;9.910;2022-11-03T04:37:54;8.70;99.90
22629;DHT22;11481;53.694;9.910;2022-11-03T04:40:23;8.70;99.90
22629;DHT22;11481;53.694;9.910;2022-11-03T04:42:50;8.60;99.90
22629;DHT22;11481;53.694;9.910;2022-11-03T04:45:27;8.60;99.90
22629;DHT22;11481;53.694;9.910;2022-11-03T04:47:54;8.60;99.90
22629;DHT22;11481;53.694;9.910;2022-11-03T04:50:22;8.70;99.90
22629;DHT22;11481;53.694;9.910;2022-11-03T04:52:56;8.60;99.90
22629;DHT22;11481;53.694;9.910;2022-11-03T04:55:24;8.60;99.90
22629;DHT22;11481;53.694;9.910;2022-11-03T04:57:56;8.60;99.90
22629;DHT22;11481;53.694;9.910;2022-11-03T05:00:24;8.60;99.90
22629;DHT22;11481;53.694;9.910;2022-11-03T05:02:51;8.60;99.90
22629;DHT22;11481;53.694;9.910;2022-11-03T05:05:24;8.60;99.90
22629;DHT22;11481;53.694;9.910;2022-11-03T05:07:54;8.60;99.90
22629;DHT22;11481;53.694;9.910;2022-11-03T05:10:27;8.70;99.90
22629;DHT22;11481;53.694;9.910;2022-11-03T05:12:55;8.70;99.90
22629;DHT22;11481;53.694;9.910;2022-11-03T05:15:43;8.70;99.90
22629;DHT22;11481;53.694;9.910;2022-11-03T05:18:19;8.70;99.90
22629;DHT22;11481;53.694;9.910;2022-11-03T05:23:18;8.60;99.90
22629;DHT22;11481;53.694;9.910;2022-11-03T05:25:51;8.60;99.90
22629;DHT22;11481;53.694;9.910;2022-11-03T05:28:27;8.70;99.90
22629;DHT22;11481;53.694;9.910;2022-11-03T05:30:55;8.70;99.90
22629;DHT22;11481;53.694;9.910;2022-11-03T05:35:53;8.60;99.90
22629;DHT22;11481;53.694;9.910;2022-11-03T05:38:21;8.60;99.90
22629;DHT22;11481;53.694;9.910;2022-11-03T05:40:51;8.70;99.90
22629;DHT22;11481;53.694;9.910;2022-11-03T05:43:20;8.70;99.90
22629;DHT22;11481;53.694;9.910;2022-11-03T05:45:49;8.70;99.90
22629;DHT22;11481;53.694;9.910;2022-11-03T05:48:29;8.60;99.90
22629;DHT22;11481;53.694;9.910;2022-11-03T05:50:57;8.60;99.90
22629;DHT22;11481;53.694;9.910;2022-11-03T05:53:31;8.60;99.90
22629;DHT22;11481;53.694;9.910;2022-11-03T05:56:00;8.60;99.90
22629;DHT22;11481;53.694;9.910;2022-11-03T05:58:31;8.60;99.90
22629;DHT22;11481;53.694;9.910;2022-11-03T06:01:04;8.60;99.90
22629;DHT22;11481;53.694;9.910;2022-11-03T06:03:35;8.60;99.90
22629;DHT22;11481;53.694;9.910;2022-11-03T06:06:33;8.60;99.90
22629;DHT22;11481;53.694;9.910;2022-11-03T06:09:02;8.60;99.90
22629;DHT22;11481;53.694;9.910;2022-11-03T06:11:34;8.60;99.90
22629;DHT22;11481;53.694;9.910;2022-11-03T06:14:20;8.60;99.90
22629;DHT22;11481;53.694;9.910;2022-11-03T06:17:00;8.60;99.90
22629;DHT22;11481;53.694;9.910;2022-11-03T06:19:34;8.60;99.90
22629;DHT22;11481;53.694;9.910;2022-11-03T06:22:30;8.60;99.90
22629;DHT22;11481;53.694;9.910;2022-11-03T06:27:42;8.60;99.90
22629;DHT22;11481;53.694;9.910;2022-11-03T06:30:24;8.50;99.90
22629;DHT22;11481;53.694;9.910;2022-11-03T06:32:53;8.60;99.90
22629;DHT22;11481;53.694;9.910;2022-11-03T06:35:21;8.60;99.90
22629;DHT22;11481;53.694;9.910;2022-11-03T06:37:47;8.60;99.90
22629;DHT22;11481;53.694;9.910;2022-11-03T06:42:42;8.70;99.90
22629;DHT22;11481;53.694;9.910;2022-11-03T06:45:19;8.70;99.90
22629;DHT22;11481;53.694;9.910;2022-11-03T06:47:46;8.70;99.90
22629;DHT22;11481;53.694;9.910;2022-11-03T06:50:27;8.70;99.90
22629;DHT22;11481;53.694;9.910;2022-11-03T06:53:00;8.80;99.90
22629;DHT22;11481;53.694;9.910;2022-11-03T06:55:34;8.80;99.90
22629;DHT22;11481;53.694;9.910;2022-11-03T07:00:41;8.80;99.90
22629;DHT22;11481;53.694;9.910;2022-11-03T07:05:49;8.90;99.90
22629;DHT22;11481;53.694;9.910;2022-11-03T07:08:23;8.90;99.90
22629;DHT22;11481;53.694;9.910;2022-11-03T07:13:33;9.00;99.90
22629;DHT22;11481;53.694;9.910;2022-11-03T07:16:00;9.00;99.90
22629;DHT22;11481;53.694;9.910;2022-11-03T07:18:33;8.90;99.90
22629;DHT22;11481;53.694;9.910;2022-11-03T07:27:35;9.10;99.90
22629;DHT22;11481;53.694;9.910;2022-11-03T07:32:38;9.20;99.90
22629;DHT22;11481;53.694;9.910;2022-11-03T07:35:27;9.20;99.90
22629;DHT22;11481;53.694;9.910;2022-11-03T07:38:19;9.20;99.90
22629;DHT22;11481;53.694;9.910;2022-11-03T07:40:47;9.20;99.90
22629;DHT22;11481;53.694;9.910;2022-11-03T07:43:21;9.20;99.90
22629;DHT22;11481;53.694;9.910;2022-11-03T07:45:51;9.20;99.90
22629;DHT22;11481;53.694;9.910;2022-11-03T07:50:48;9.40;99.90
22629;DHT22;11481;53.694;9.910;2022-11-03T07:53:21;9.30;99.90
22629;DHT22;11481;53.694;9.910;2022-11-03T07:55:53;9.30;99.90
22629;DHT22;11481;53.694;9.910;2022-11-03T07:58:24;9.40;99.90
22629;DHT22;11481;53.694;9.910;2022-11-03T08:00:54;9.30;99.90
22629;DHT22;11481;53.694;9.910;2022-11-03T08:03:41;9.40;99.90
22629;DHT22;11481;53.694;9.910;2022-11-03T08:06:11;9.40;99.90
22629;DHT22;11481;53.694;9.910;2022-11-03T08:08:42;9.40;99.90
22629;DHT22;11481;53.694;9.910;2022-11-03T08:11:09;9.50;99.90
22629;DHT22;11481;53.694;9.910;2022-11-03T08:13:36;9.50;99.90
22629;DHT22;11481;53.694;9.910;2022-11-03T08:16:02;9.60;99.90
22629;DHT22;11481;53.694;9.910;2022-11-03T08:18:29;9.60;99.90
22629;DHT22;11481;53.694;9.910;2022-11-03T08:20:56;9.60;99.90
22629;DHT22;11481;53.694;9.910;2022-11-03T08:23:22;9.60;99.90
22629;DHT22;11481;53.694;9.910;2022-11-03T08:25:52;9.70;99.90
22629;DHT22;11481;53.694;9.910;2022-11-03T08:28:18;9.80;99.90
22629;DHT22;11481;53.694;9.910;2022-11-03T08:30:45;9.80;99.90
22629;DHT22;11481;53.694;9.910;2022-11-03T08:33:12;9.80;99.90
22629;DHT22;11481;53.694;9.910;2022-11-03T08:35:38;9.80;99.90
22629;DHT22;11481;53.694;9.910;2022-11-03T08:38:05;9.90;99.90
22629;DHT22;11481;53.694;9.910;2022-11-03T08:40:32;10.00;99.90
22629;DHT22;11481;53.694;9.910;2022-11-03T08:42:58;10.10;99.90
22629;DHT22;11481;53.694;9.910;2022-11-03T08:45:28;10.20;99.90
22629;DHT22;11481;53.694;9.910;2022-11-03T08:47:55;10.20;99.90
22629;DHT22;11481;53.694;9.910;2022-11-03T08:50:22;10.20;99.90
22629;DHT22;11481;53.694;9.910;2022-11-03T08:52:49;10.30;99.90
22629;DHT22;11481;53.694;9.910;2022-11-03T08:55:16;10.30;99.90
22629;DHT22;11481;53.694;9.910;2022-11-03T08:57:43;10.30;99.90
22629;DHT22;11481;53.694;9.910;2022-11-03T09:00:10;10.30;99.90
22629;DHT22;11481;53.694;9.910;2022-11-03T09:02:37;10.50;99.90
22629;DHT22;11481;53.694;9.910;2022-11-03T09:05:04;10.60;99.90
22629;DHT22;11481;53.694;9.910;2022-11-03T09:07:33;10.60;99.90
22629;DHT22;11481;53.694;9.910;2022-11-03T09:10:19;10.70;99.90
22629;DHT22;11481;53.694;9.910;2022-11-03T09:12:52;10.80;99.90
22629;DHT22;11481;53.694;9.910;2022-11-03T09:15:19;10.90;99.90
22629;DHT22;11481;53.694;9.910;2022-11-03T09:17:46;11.00;99.90
22629;DHT22;11481;53.694;9.910;2022-11-03T09:20:13;11.00;99.90
22629;DHT22;11481;53.694;9.910;2022-11-03T09:22:40;11.10;99.90
22629;DHT22;11481;53.694;9.910;2022-11-03T09:25:07;11.20;99.90
22629;DHT22;11481;53.694;9.910;2022-11-03T09:27:33;11.20;99.90
22629;DHT22;11481;53.694;9.910;2022-11-03T09:30:00;11.30;99.90
22629;DHT22;11481;53.694;9.910;2022-11-03T09:32:40;11.30;99.90
22629;DHT22;11481;53.694;9.910;2022-11-03T09:35:07;11.30;99.90
22629;DHT22;11481;53.694;9.910;2022-11-03T09:37:35;11.40;99.90
22629;DHT22;11481;53.694;9.910;2022-11-03T09:40:02;11.40;99.90
22629;DHT22;11481;53.694;9.910;2022-11-03T09:42:31;11.40;99.90
22629;DHT22;11481;53.694;9.910;2022-11-03T09:45:00;11.60;99.90
22629;DHT22;11481;53.694;9.910;2022-11-03T09:47:40;11.60;99.90
22629;DHT22;11481;53.694;9.910;2022-11-03T09:50:14;11.60;99.90
22629;DHT22;11481;53.694;9.910;2022-11-03T09:52:42;11.70;99.90
22629;DHT22;11481;53.694;9.910;2022-11-03T09:55:19;11.70;99.90
22629;DHT22;11481;53.694;9.910;2022-11-03T09:57:47;11.70;99.90
22629;DHT22;11481;53.694;9.910;2022-11-03T10:00:19;11.80;99.90
22629;DHT22;11481;53.694;9.910;2022-11-03T10:02:47;11.90;99.90
22629;DHT22;11481;53.694;9.910;2022-11-03T10:05:25;11.90;99.90
22629;DHT22;11481;53.694;9.910;2022-11-03T10:08:02;12.00;99.90
22629;DHT22;11481;53.694;9.910;2022-11-03T10:10:30;12.00;99.90
22629;DHT22;11481;53.694;9.910;2022-11-03T10:12:58;12.10;99.90
22629;DHT22;11481;53.694;9.910;2022-11-03T10:15:26;12.10;99.90
22629;DHT22;11481;53.694;9.910;2022-11-03T10:17:53;12.30;99.90
22629;DHT22;11481;53.694;9.910;2022-11-03T10:20:21;12.40;99.90
22629;DHT22;11481;53.694;9.910;2022-11-03T10:22:51;12.50;99.90
22629;DHT22;11481;53.694;9.910;2022-11-03T10:25:41;12.60;99.90
22629;DHT22;11481;53.694;9.910;2022-11-03T10:31:02;12.60;99.90
22629;DHT22;11481;53.694;9.910;2022-11-03T10:33:41;12.60;99.90
22629;DHT22;11481;53.694;9.910;2022-11-03T10:38:46;12.50;99.90
22629;DHT22;11481;53.694;9.910;2022-11-03T10:41:21;12.60;99.90
22629;DHT22;11481;53.694;9.910;2022-11-03T10:46:39;12.70;99.90
22629;DHT22;11481;53.694;9.910;2022-11-03T10:49:22;12.80;99.90
22629;DHT22;11481;53.694;9.910;2022-11-03T10:51:53;12.90;99.90
22629;DHT22;11481;53.694;9.910;2022-11-03T10:54:23;13.00;99.90
22629;DHT22;11481;53.694;9.910;2022-11-03T10:56:50;12.90;99.90
22629;DHT22;11481;53.694;9.910;2022-11-03T10:59:19;12.90;99.90
22629;DHT22;11481;53.694;9.910;2022-11-03T11:01:50;12.90;99.90
22629;DHT22;11481;53.694;9.910;2022-11-03T11:04:19;12.80;99.90
22629;DHT22;11481;53.694;9.910;2022-11-03T11:06:46;12.90;99.90
22629;DHT22;11481;53.694;9.910;2022-11-03T11:09:16;12.90;99.90
22629;DHT22;11481;53.694;9.910;2022-11-03T11:12:05;13.00;99.90
22629;DHT22;11481;53.694;9.910;2022-11-03T11:14:57;13.20;99.90
22629;DHT22;11481;53.694;9.910;2022-11-03T11:20:39;13.30;99.90
22629;DHT22;11481;53.694;9.910;2022-11-03T11:31:44;13.50;99.90
22629;DHT22;11481;53.694;9.910;2022-11-03T11:42:10;13.80;99.90
22629;DHT22;11481;53.694;9.910;2022-11-03T11:50:24;14.10;99.90
22629;DHT22;11481;53.694;9.910;2022-11-03T11:53:31;14.20;99.90
22629;DHT22;11481;53.694;9.910;2022-11-03T11:55:58;14.20;99.90
22629;DHT22;11481;53.694;9.910;2022-11-03T12:01:23;14.20;99.90
22629;DHT22;11481;53.694;9.910;2022-11-03T12:04:16;14.30;99.90
22629;DHT22;11481;53.694;9.910;2022-11-03T12:06:41;14.40;99.90
22629;DHT22;11481;53.694;9.910;2022-11-03T12:09:18;14.50;99.90
22629;DHT22;11481;53.694;9.910;2022-11-03T12:11:59;14.60;99.90
22629;DHT22;11481;53.694;9.910;2022-11-03T12:14:37;14.60;99.90
22629;DHT22;11481;53.694;9.910;2022-11-03T12:19:52;14.50;99.90
22629;DHT22;11481;53.694;9.910;2022-11-03T12:24:49;14.40;99.90
22629;DHT22;11481;53.694;9.910;2022-11-03T12:29:58;14.50;99.90
22629;DHT22;11481;53.694;9.910;2022-11-03T12:32:25;14.50;99.90
22629;DHT22;11481;53.694;9.910;2022-11-03T12:35:01;14.60;99.90
22629;DHT22;11481;53.694;9.910;2022-11-03T12:37:27;14.50;99.90
22629;DHT22;11481;53.694;9.910;2022-11-03T12:39:54;14.40;99.90
22629;DHT22;11481;53.694;9.910;2022-11-03T12:42:20;14.40;99.90
22629;DHT22;11481;53.694;9.910;2022-11-03T12:44:48;14.50;99.90
22629;DHT22;11481;53.694;9.910;2022-11-03T12:47:15;14.50;99.90
22629;DHT22;11481;53.694;9.910;2022-11-03T12:49:41;14.50;99.90
22629;DHT22;11481;53.694;9.910;2022-11-03T12:52:08;14.60;99.90
22629;DHT22;11481;53.694;9.910;2022-11-03T12:54:35;14.60;99.90
22629;DHT22;11481;53.694;9.910;2022-11-03T12:57:02;14.60;99.90
22629;DHT22;11481;53.694;9.910;2022-11-03T12:59:29;14.60;99.90
22629;DHT22;11481;53.694;9.910;2022-11-03T13:01:55;14.60;99.90
22629;DHT22;11481;53.694;9.910;2022-11-03T13:04:22;14.50;99.90
22629;DHT22;11481;53.694;9.910;2022-11-03T13:06:49;14.60;99.90
22629;DHT22;11481;53.694;9.910;2022-11-03T13:09:15;14.70;99.90
22629;DHT22;11481;53.694;9.910;2022-11-03T13:11:42;14.70;99.90
22629;DHT22;11481;53.694;9.910;2022-11-03T13:14:27;14.60;99.90
22629;DHT22;11481;53.694;9.910;2022-11-03T13:16:54;14.60;99.90
22629;DHT22;11481;53.694;9.910;2022-11-03T13:19:21;14.60;99.90
22629;DHT22;11481;53.694;9.910;2022-11-03T13:21:48;14.50;99.90
22629;DHT22;11481;53.694;9.910;2022-11-03T13:24:14;14.50;99.90
22629;DHT22;11481;53.694;9.910;2022-11-03T13:26:41;14.50;99.90
22629;DHT22;11481;53.694;9.910;2022-11-03T13:29:07;14.60;99.90
22629;DHT22;11481;53.694;9.910;2022-11-03T13:31:34;14.60;99.90
22629;DHT22;11481;53.694;9.910;2022-11-03T13:34:01;14.60;99.90
22629;DHT22;11481;53.694;9.910;2022-11-03T13:36:27;14.70;99.90
22629;DHT22;11481;53.694;9.910;2022-11-03T13:38:54;14.70;99.90
22629;DHT22;11481;53.694;9.910;2022-11-03T13:41:21;14.70;99.90
22629;DHT22;11481;53.694;9.910;2022-11-03T13:43:47;14.70;99.90
22629;DHT22;11481;53.694;9.910;2022-11-03T13:46:14;14.70;99.90
22629;DHT22;11481;53.694;9.910;2022-11-03T13:48:40;14.60;99.90
22629;DHT22;11481;53.694;9.910;2022-11-03T13:51:27;14.70;99.90
22629;DHT22;11481;53.694;9.910;2022-11-03T13:53:53;14.70;99.90
22629;DHT22;11481;53.694;9.910;2022-11-03T13:56:40;14.70;99.90
22629;DHT22;11481;53.694;9.910;2022-11-03T13:59:26;14.70;99.90
22629;DHT22;11481;53.694;9.910;2022-11-03T14:01:54;14.60;99.90
22629;DHT22;11481;53.694;9.910;2022-11-03T14:04:41;14.60;99.90
22629;DHT22;11481;53.694;9.910;2022-11-03T14:07:09;14.60;99.90
22629;DHT22;11481;53.694;9.910;2022-11-03T14:09:36;14.50;99.90
22629;DHT22;11481;53.694;9.910;2022-11-03T14:12:07;14.40;99.90
22629;DHT22;11481;53.694;9.910;2022-11-03T14:14:53;14.40;99.90
22629;DHT22;11481;53.694;9.910;2022-11-03T14:17:19;14.40;99.90
22629;DHT22;11481;53.694;9.910;2022-11-03T14:19:46;14.40;99.90
22629;DHT22;11481;53.694;9.910;2022-11-03T14:22:19;14.40;99.90
22629;DHT22;11481;53.694;9.910;2022-11-03T14:24:45;14.40;99.90
22629;DHT22;11481;53.694;9.910;2022-11-03T14:27:12;14.40;99.90
22629;DHT22;11481;53.694;9.910;2022-11-03T14:29:39;14.30;99.90
22629;DHT22;11481;53.694;9.910;2022-11-03T14:32:05;14.20;99.90
22629;DHT22;11481;53.694;9.910;2022-11-03T14:34:33;14.20;99.90
22629;DHT22;11481;53.694;9.910;2022-11-03T14:37:00;14.20;99.90
22629;DHT22;11481;53.694;9.910;2022-11-03T14:39:26;14.20;99.90
22629;DHT22;11481;53.694;9.910;2022-11-03T14:41:53;14.20;99.90
22629;DHT22;11481;53.694;9.910;2022-11-03T14:44:33;14.30;99.90
22629;DHT22;11481;53.694;9.910;2022-11-03T14:47:01;14.20;99.90
22629;DHT22;11481;53.694;9.910;2022-11-03T14:49:32;14.00;99.90
22629;DHT22;11481;53.694;9.910;2022-11-03T14:52:00;14.00;99.90
22629;DHT22;11481;53.694;9.910;2022-11-03T14:54:28;14.10;99.90
22629;DHT22;11481;53.694;9.910;2022-11-03T14:56:56;14.10;99.90
22629;DHT22;11481;53.694;9.910;2022-11-03T14:59:23;14.00;99.90
22629;DHT22;11481;53.694;9.910;2022-11-03T15:01:51;14.00;99.90
22629;DHT22;11481;53.694;9.910;2022-11-03T15:04:19;14.10;99.90
22629;DHT22;11481;53.694;9.910;2022-11-03T15:06:45;14.10;99.90
22629;DHT22;11481;53.694;9.910;2022-11-03T15:09:12;14.20;99.90
22629;DHT22;11481;53.694;9.910;2022-11-03T15:11:41;14.20;99.90
22629;DHT22;11481;53.694;9.910;2022-11-03T15:14:08;14.20;99.90
22629;DHT22;11481;53.694;9.910;2022-11-03T15:16:34;14.20;99.90
22629;DHT22;11481;53.694;9.910;2022-11-03T15:19:06;14.10;99.90
22629;DHT22;11481;53.694;9.910;2022-11-03T15:21:32;14.10;99.90
22629;DHT22;11481;53.694;9.910;2022-11-03T15:23:59;14.10;99.90
22629;DHT22;11481;53.694;9.910;2022-11-03T15:26:46;14.00;99.90
22629;DHT22;11481;53.694;9.910;2022-11-03T15:29:13;13.90;99.90
22629;DHT22;11481;53.694;9.910;2022-11-03T15:31:40;13.90;99.90
22629;DHT22;11481;53.694;9.910;2022-11-03T15:34:13;14.00;99.90
22629;DHT22;11481;53.694;9.910;2022-11-03T15:36:41;13.90;99.90
22629;DHT22;11481;53.694;9.910;2022-11-03T15:39:07;13.90;99.90
22629;DHT22;11481;53.694;9.910;2022-11-03T15:41:34;13.80;99.90
22629;DHT22;11481;53.694;9.910;2022-11-03T15:44:00;13.80;99.90
22629;DHT22;11481;53.694;9.910;2022-11-03T15:46:27;13.80;99.90
22629;DHT22;11481;53.694;9.910;2022-11-03T15:48:54;13.90;99.90
22629;DHT22;11481;53.694;9.910;2022-11-03T15:51:22;13.90;99.90
22629;DHT22;11481;53.694;9.910;2022-11-03T15:53:49;14.00;99.90
22629;DHT22;11481;53.694;9.910;2022-11-03T15:56:24;13.90;99.90
22629;DHT22;11481;53.694;9.910;2022-11-03T15:58:53;13.90;99.90
22629;DHT22;11481;53.694;9.910;2022-11-03T16:01:20;13.90;99.90
22629;DHT22;11481;53.694;9.910;2022-11-03T16:04:11;13.70;99.90
22629;DHT22;11481;53.694;9.910;2022-11-03T16:06:38;13.70;99.90
22629;DHT22;11481;53.694;9.910;2022-11-03T16:09:24;13.70;99.90
22629;DHT22;11481;53.694;9.910;2022-11-03T16:11:51;13.60;99.90
22629;DHT22;11481;53.694;9.910;2022-11-03T16:14:18;13.60;99.90
22629;DHT22;11481;53.694;9.910;2022-11-03T16:17:08;13.50;99.90
22629;DHT22;11481;53.694;9.910;2022-11-03T16:19:35;13.40;99.90
22629;DHT22;11481;53.694;9.910;2022-11-03T16:22:03;13.40;99.90
22629;DHT22;11481;53.694;9.910;2022-11-03T16:24:29;13.30;99.90
22629;DHT22;11481;53.694;9.910;2022-11-03T16:27:01;13.30;99.90
22629;DHT22;11481;53.694;9.910;2022-11-03T16:29:28;13.40;99.90
22629;DHT22;11481;53.694;9.910;2022-11-03T16:31:54;13.30;99.90
22629;DHT22;11481;53.694;9.910;2022-11-03T16:34:21;13.30;99.90
22629;DHT22;11481;53.694;9.910;2022-11-03T16:36:48;13.40;99.90
22629;DHT22;11481;53.694;9.910;2022-11-03T16:39:14;13.30;99.90
22629;DHT22;11481;53.694;9.910;2022-11-03T16:41:41;13.30;99.90
22629;DHT22;11481;53.694;9.910;2022-11-03T16:44:07;13.30;99.90
22629;DHT22;11481;53.694;9.910;2022-11-03T16:46:34;13.30;99.90
22629;DHT22;11481;53.694;9.910;2022-11-03T16:49:00;13.30;99.90
22629;DHT22;11481;53.694;9.910;2022-11-03T16:51:28;13.20;99.90
22629;DHT22;11481;53.694;9.910;2022-11-03T16:53:55;13.20;99.90
22629;DHT22;11481;53.694;9.910;2022-11-03T16:56:23;13.10;99.90
22629;DHT22;11481;53.694;9.910;2022-11-03T16:58:51;13.20;99.90
22629;DHT22;11481;53.694;9.910;2022-11-03T17:01:17;13.30;99.90
22629;DHT22;11481;53.694;9.910;2022-11-03T17:03:44;13.30;99.90
22629;DHT22;11481;53.694;9.910;2022-11-03T17:06:11;13.30;99.90
22629;DHT22;11481;53.694;9.910;2022-11-03T17:08:37;13.20;99.90
22629;DHT22;11481;53.694;9.910;2022-11-03T17:11:20;13.10;99.90
22629;DHT22;11481;53.694;9.910;2022-11-03T17:14:06;13.10;99.90
22629;DHT22;11481;53.694;9.910;2022-11-03T17:16:33;13.10;99.90
22629;DHT22;11481;53.694;9.910;2022-11-03T17:19:00;13.10;99.90
22629;DHT22;11481;53.694;9.910;2022-11-03T17:21:26;13.10;99.90
22629;DHT22;11481;53.694;9.910;2022-11-03T17:23:53;13.10;99.90
22629;DHT22;11481;53.694;9.910;2022-11-03T17:26:24;13.00;99.90
22629;DHT22;11481;53.694;9.910;2022-11-03T17:28:52;13.00;99.90
22629;DHT22;11481;53.694;9.910;2022-11-03T17:31:19;12.90;99.90
22629;DHT22;11481;53.694;9.910;2022-11-03T17:34:10;12.80;99.90